createdAt,value
2018-07-14T00:01:24.041Z,20.30
2018-07-14T00:06:27.091Z,20.00
2018-07-14T00:11:30.425Z,19.70
2018-07-14T00:16:33.580Z,19.50
2018-07-14T00:21:36.876Z,19.50
2018-07-14T00:26:39.862Z,19.40
2018-07-14T00:31:42.892Z,19.30
2018-07-14T00:36:46.094Z,19.10
2018-07-14T00:41:49.436Z,19.10
2018-07-14T00:46:52.469Z,18.90
2018-07-14T00:51:55.436Z,19.10
2018-07-14T00:56:58.425Z,19.20
2018-07-14T01:02:01.440Z,19.30
2018-07-14T01:07:04.463Z,19.30
2018-07-14T01:12:07.516Z,19.10
2018-07-14T01:17:10.626Z,19.10
2018-07-14T01:22:13.840Z,19.30
2018-07-14T01:27:17.055Z,19.20
2018-07-14T01:32:20.356Z,19.00
2018-07-14T01:37:23.376Z,19.20
2018-07-14T01:42:26.463Z,19.40
2018-07-14T01:47:29.631Z,19.40
2018-07-14T01:52:32.631Z,19.10
2018-07-14T01:57:35.884Z,19.10
2018-07-14T02:02:38.919Z,19.20
2018-07-14T02:07:41.971Z,19.10
2018-07-14T02:12:45.003Z,19.00
2018-07-14T02:17:48.493Z,19.00
2018-07-14T02:22:51.937Z,19.20
2018-07-14T02:27:54.947Z,19.00
2018-07-14T02:32:57.960Z,19.10
2018-07-14T02:38:01.137Z,19.00
2018-07-14T02:43:04.352Z,18.80
2018-07-14T02:48:08.282Z,18.80
2018-07-14T02:53:11.301Z,18.40
2018-07-14T02:58:14.388Z,18.50
2018-07-14T03:03:17.420Z,18.50
2018-07-14T03:08:20.671Z,18.60
2018-07-14T03:13:23.665Z,18.70
2018-07-14T03:18:26.650Z,18.70
2018-07-14T03:23:29.637Z,18.80
2018-07-14T03:28:32.655Z,18.80
2018-07-14T03:33:35.657Z,18.80
2018-07-14T03:38:38.827Z,18.70
2018-07-14T03:43:41.788Z,18.80
2018-07-14T03:48:44.804Z,18.90
2018-07-14T03:53:47.868Z,19.00
2018-07-14T03:58:51.769Z,19.00
2018-07-14T04:03:54.782Z,19.00
2018-07-14T04:08:57.969Z,19.10
2018-07-14T04:14:01.113Z,19.20
2018-07-14T04:19:04.139Z,19.20
2018-07-14T04:24:07.190Z,19.10
2018-07-14T04:29:10.922Z,19.10
2018-07-14T04:34:13.953Z,19.20
2018-07-14T04:39:16.970Z,19.20
2018-07-14T04:44:19.971Z,19.30
2018-07-14T04:49:23.282Z,19.30
2018-07-14T04:54:26.451Z,19.30
2018-07-14T04:59:29.654Z,19.20
2018-07-14T05:04:32.887Z,19.30
2018-07-14T05:09:35.863Z,19.70
2018-07-14T05:14:38.882Z,19.50
2018-07-14T05:19:41.894Z,19.60
2018-07-14T05:24:45.185Z,19.90
2018-07-14T05:29:48.236Z,20.20
2018-07-14T05:34:51.402Z,20.50
2018-07-14T05:39:54.433Z,21.10
2018-07-14T05:44:57.709Z,21.90
2018-07-14T05:50:00.702Z,21.80
2018-07-14T05:55:04.298Z,23.30
2018-07-14T06:00:08.422Z,23.70
2018-07-14T06:05:11.685Z,23.10
2018-07-14T06:10:14.907Z,24.10
2018-07-14T06:15:17.879Z,24.40
2018-07-14T06:20:20.865Z,24.20
2018-07-14T06:25:24.083Z,25.20
2018-07-14T06:30:27.415Z,26.40
2018-07-14T06:35:30.757Z,26.80
2018-07-14T06:40:40.733Z,27.50
2018-07-14T06:45:43.752Z,26.60
2018-07-14T06:50:47.034Z,27.30
2018-07-14T06:55:50.520Z,27.30
2018-07-14T07:00:53.965Z,25.90
2018-07-14T07:05:57.260Z,26.80
2018-07-14T07:11:00.288Z,28.40
2018-07-14T07:16:03.275Z,27.50
2018-07-14T07:26:09.671Z,29.50
2018-07-14T07:31:12.879Z,28.70
2018-07-14T07:36:16.105Z,29.20
2018-07-14T07:41:19.308Z,29.10
2018-07-14T07:46:22.287Z,28.60
2018-07-14T07:51:25.372Z,28.70
2018-07-14T07:56:28.414Z,28.40
2018-07-14T08:01:31.527Z,28.90
2018-07-14T08:06:34.730Z,28.70
2018-07-14T08:11:37.762Z,28.90
2018-07-14T08:16:40.764Z,29.40
2018-07-14T08:21:43.814Z,29.40
2018-07-14T08:26:46.919Z,29.00
2018-07-14T08:31:50.679Z,28.90
2018-07-14T08:36:53.814Z,28.40
2018-07-14T08:41:56.833Z,28.10
2018-07-14T08:47:00.092Z,28.10
2018-07-14T08:52:03.130Z,28.40
2018-07-14T08:57:06.224Z,28.50
2018-07-14T09:02:09.523Z,28.70
2018-07-14T09:07:12.571Z,29.10
2018-07-14T09:12:15.688Z,29.00
2018-07-14T09:17:18.745Z,28.60
2018-07-14T09:22:21.892Z,28.90
2018-07-14T09:27:24.947Z,29.40
2018-07-14T09:32:28.027Z,29.40
2018-07-14T09:37:31.074Z,29.50
2018-07-14T09:42:34.168Z,29.70
2018-07-14T09:47:37.185Z,29.10
2018-07-14T09:52:40.394Z,29.00
2018-07-14T09:57:43.735Z,28.90
2018-07-14T10:02:47.220Z,28.50
2018-07-14T10:07:50.393Z,29.20
2018-07-14T10:12:53.663Z,28.70
2018-07-14T10:17:56.831Z,28.90
2018-07-14T10:23:00.244Z,29.10
2018-07-14T10:28:03.448Z,29.40
2018-07-14T10:33:06.570Z,29.70
2018-07-14T10:38:09.648Z,29.30
2018-07-14T10:43:12.636Z,29.10
2018-07-14T10:48:15.749Z,29.50
2018-07-14T10:53:18.881Z,29.00
2018-07-14T10:58:21.900Z,29.60
2018-07-14T11:03:24.949Z,28.90
2018-07-14T11:08:28.075Z,29.00
2018-07-14T11:13:31.887Z,29.30
2018-07-14T11:18:35.138Z,29.80
2018-07-14T11:23:38.383Z,30.40
2018-07-14T11:28:41.429Z,30.20
2018-07-14T11:33:44.769Z,29.90
2018-07-14T11:38:47.808Z,30.10
2018-07-14T11:43:50.774Z,30.00
2018-07-14T11:48:53.770Z,29.80
2018-07-14T11:53:56.855Z,29.80
2018-07-14T11:58:59.902Z,29.80
2018-07-14T12:09:06.577Z,29.60
2018-07-14T12:14:09.669Z,29.80
2018-07-14T12:19:12.695Z,29.80
2018-07-14T12:24:15.795Z,29.70
2018-07-14T12:29:19.027Z,30.00
2018-07-14T12:34:22.266Z,30.00
2018-07-14T12:39:25.372Z,30.30
2018-07-14T12:44:28.403Z,30.20
2018-07-14T12:49:31.416Z,30.10
2018-07-14T12:54:34.484Z,30.10
2018-07-14T12:59:37.770Z,30.00
2018-07-14T13:04:40.835Z,29.90
2018-07-14T13:09:43.879Z,30.00
2018-07-14T13:14:46.940Z,30.10
2018-07-14T13:19:50.195Z,30.90
2018-07-14T13:24:53.253Z,30.90
2018-07-14T13:29:56.324Z,30.60
2018-07-14T13:34:59.437Z,30.30
2018-07-14T13:40:02.606Z,30.80
2018-07-14T13:45:05.943Z,30.60
2018-07-14T13:50:09.559Z,30.50
2018-07-14T13:55:12.638Z,30.60
2018-07-14T14:00:15.696Z,30.10
2018-07-14T14:05:18.980Z,30.20
2018-07-14T14:10:22.334Z,30.40
2018-07-14T14:15:25.381Z,30.80
2018-07-14T14:20:28.560Z,30.70
2018-07-14T14:25:31.635Z,30.50
2018-07-14T14:30:34.995Z,30.60
2018-07-14T14:35:38.060Z,30.90
2018-07-14T14:40:41.096Z,30.50
2018-07-14T14:45:44.112Z,30.50
2018-07-14T14:50:47.301Z,30.60
2018-07-14T14:55:50.555Z,30.90
2018-07-14T15:00:53.716Z,31.10
2018-07-14T15:05:56.788Z,31.00
2018-07-14T15:10:59.849Z,30.70
2018-07-14T15:16:03.174Z,30.50
2018-07-14T15:21:06.657Z,30.40
2018-07-14T15:26:09.767Z,30.10
2018-07-14T15:31:13.095Z,30.60
2018-07-14T15:36:16.595Z,31.00
2018-07-14T15:41:19.956Z,30.90
2018-07-14T15:46:23.029Z,30.50
2018-07-14T15:51:26.340Z,30.80
2018-07-14T15:56:29.680Z,30.70
2018-07-14T16:01:33.015Z,30.70
2018-07-14T16:06:35.947Z,31.10
2018-07-14T16:11:39.070Z,31.30
2018-07-14T16:16:42.036Z,31.50
2018-07-14T16:21:44.983Z,31.10
2018-07-14T16:26:47.960Z,30.90
2018-07-14T16:31:51.064Z,30.80
2018-07-14T16:36:54.026Z,30.40
2018-07-14T16:41:57.055Z,30.20
2018-07-14T16:47:00.037Z,29.70
2018-07-14T16:52:03.072Z,29.90
2018-07-14T16:57:06.020Z,29.60
2018-07-14T17:02:09.202Z,29.60
2018-07-14T17:07:12.085Z,29.80
2018-07-14T17:12:15.200Z,29.50
2018-07-14T17:17:18.424Z,29.60
2018-07-14T17:22:21.524Z,29.40
2018-07-14T17:27:24.563Z,29.60
2018-07-14T17:32:27.626Z,29.60
2018-07-14T17:37:31.177Z,29.30
2018-07-14T17:42:34.601Z,28.90
2018-07-14T17:47:37.636Z,28.50
2018-07-14T17:52:40.689Z,28.10
2018-07-14T17:57:43.970Z,28.00
2018-07-14T18:02:47.197Z,27.70
2018-07-14T18:07:50.497Z,27.30
2018-07-14T18:12:53.666Z,27.30
2018-07-14T18:17:56.828Z,27.30
2018-07-14T18:22:59.868Z,27.20
2018-07-14T18:28:03.172Z,27.00
2018-07-14T18:33:07.668Z,27.00
2018-07-14T18:38:11.804Z,27.00
2018-07-14T18:43:16.467Z,26.80
2018-07-14T18:48:19.517Z,26.90
2018-07-14T18:53:23.837Z,26.90
2018-07-14T18:58:26.860Z,26.90
2018-07-14T19:03:29.990Z,26.80
2018-07-14T19:08:33.453Z,26.70
2018-07-14T19:13:36.537Z,26.50
2018-07-14T19:18:39.722Z,26.30
2018-07-14T19:23:42.785Z,26.10
2018-07-14T19:28:46.062Z,26.10
2018-07-14T19:33:49.095Z,25.80
2018-07-14T19:38:52.160Z,25.60
2018-07-14T19:43:55.452Z,25.50
2018-07-14T19:48:59.040Z,25.50
2018-07-14T19:54:02.140Z,25.30
2018-07-14T19:59:05.870Z,25.10
2018-07-14T20:04:09.014Z,25.00
2018-07-14T20:09:12.365Z,25.10
2018-07-14T20:14:15.472Z,25.20
2018-07-14T20:19:18.712Z,25.10
2018-07-14T20:24:21.783Z,25.20
2018-07-14T20:29:25.079Z,24.70
2018-07-14T20:34:28.278Z,24.80
2018-07-14T20:39:31.480Z,24.40
2018-07-14T20:44:35.408Z,24.10
2018-07-14T20:49:38.458Z,24.40
2018-07-14T20:54:41.746Z,24.60
2018-07-14T20:59:45.266Z,24.60
2018-07-14T21:04:48.289Z,24.60
2018-07-14T21:09:51.392Z,24.30
2018-07-14T21:14:55.146Z,24.10
2018-07-14T21:19:58.586Z,24.10
2018-07-14T21:25:01.811Z,24.10
2018-07-14T21:30:04.983Z,23.90
2018-07-14T21:35:08.142Z,23.90
2018-07-14T21:40:11.217Z,23.70
2018-07-14T21:45:15.008Z,23.60
2018-07-14T21:50:18.179Z,23.50
2018-07-14T21:55:21.238Z,23.50
2018-07-14T22:00:33.137Z,23.50
2018-07-14T22:05:36.451Z,23.30
2018-07-14T22:10:39.490Z,23.20
2018-07-14T22:15:42.802Z,23.30
2018-07-14T22:20:46.099Z,23.20
2018-07-14T22:25:49.289Z,23.20
2018-07-14T22:30:52.335Z,23.00
2018-07-14T22:35:55.427Z,23.00
2018-07-14T22:40:58.480Z,22.90
2018-07-14T22:46:01.518Z,22.70
2018-07-14T22:51:04.843Z,22.70
2018-07-14T22:56:07.920Z,22.70
2018-07-14T23:01:10.948Z,22.60
2018-07-14T23:06:14.172Z,22.50
2018-07-14T23:11:17.280Z,22.40
2018-07-14T23:16:20.336Z,22.40
2018-07-14T23:21:23.585Z,22.20
2018-07-14T23:26:26.641Z,22.20
2018-07-14T23:31:29.730Z,22.00
2018-07-14T23:36:32.724Z,22.00
2018-07-14T23:41:36.621Z,21.90
2018-07-14T23:46:39.652Z,22.00
2018-07-14T23:51:42.710Z,22.10
2018-07-14T23:56:45.711Z,22.10
